createdAt,value
2022-08-14T00:00:10.245Z,7.43
2022-08-14T00:03:29.181Z,7.70
2022-08-14T00:06:33.915Z,7.80
2022-08-14T00:10:01.963Z,8.40
2022-08-14T00:13:06.777Z,7.97
2022-08-14T00:16:41.693Z,8.00
2022-08-14T00:19:37.519Z,8.50
2022-08-14T00:22:56.223Z,8.43
2022-08-14T00:26:06.511Z,8.33
2022-08-14T00:29:11.231Z,8.37
2022-08-14T00:32:51.792Z,7.97
2022-08-14T00:36:36.651Z,8.10
2022-08-14T00:39:01.652Z,7.67
2022-08-14T00:42:05.445Z,8.00
2022-08-14T00:45:11.567Z,8.30
2022-08-14T00:48:34.348Z,8.03
2022-08-14T00:51:41.156Z,7.83
2022-08-14T00:54:46.870Z,7.77
2022-08-14T00:58:10.937Z,8.13
2022-08-14T01:01:16.738Z,8.40
2022-08-14T01:04:52.411Z,8.20
2022-08-14T01:07:53.880Z,8.17
2022-08-14T01:11:01.496Z,7.93
2022-08-14T01:14:25.863Z,8.67
2022-08-14T01:17:49.222Z,8.30
2022-08-14T01:21:11.797Z,8.17
2022-08-14T01:24:30.216Z,9.30
2022-08-14T01:27:53.807Z,8.83
2022-08-14T01:31:01.753Z,9.20
2022-08-14T01:35:19.688Z,9.40
2022-08-14T01:37:31.953Z,8.53
2022-08-14T01:40:41.964Z,7.97
2022-08-14T01:43:56.311Z,8.87
2022-08-14T01:47:01.781Z,9.13
2022-08-14T01:50:11.163Z,9.57
2022-08-14T01:53:17.835Z,9.23
2022-08-14T01:56:23.164Z,9.67
2022-08-14T01:59:37.703Z,9.73
2022-08-14T02:02:42.501Z,8.37
2022-08-14T02:05:49.628Z,8.40
2022-08-14T02:08:55.224Z,8.87
2022-08-14T02:12:00.747Z,8.47
2022-08-14T02:15:09.183Z,8.23
2022-08-14T02:18:15.260Z,8.50
2022-08-14T02:21:19.530Z,8.63
2022-08-14T02:24:40.007Z,8.53
2022-08-14T02:28:22.426Z,8.50
2022-08-14T02:31:09.123Z,9.77
2022-08-14T02:34:21.864Z,8.83
2022-08-14T02:37:48.045Z,9.13
2022-08-14T02:40:51.701Z,8.80
2022-08-14T02:44:01.029Z,8.27
2022-08-14T02:47:14.676Z,9.10
2022-08-14T02:50:20.271Z,9.30
2022-08-14T02:53:31.180Z,9.30
2022-08-14T02:57:13.922Z,8.37
2022-08-14T03:00:03.424Z,8.87
2022-08-14T03:03:09.665Z,8.97
2022-08-14T03:06:14.909Z,9.27
2022-08-14T03:09:23.873Z,9.07
2022-08-14T03:12:31.459Z,8.77
2022-08-14T03:15:39.036Z,8.93
2022-08-14T03:18:45.723Z,8.97
2022-08-14T03:21:52.985Z,9.13
2022-08-14T03:24:55.993Z,9.80
2022-08-14T03:28:05.256Z,9.50
2022-08-14T03:34:48.041Z,9.50
2022-08-14T03:39:11.592Z,10.00
2022-08-14T03:41:23.039Z,9.97
2022-08-14T03:45:19.529Z,10.43
2022-08-14T03:47:55.940Z,9.63
2022-08-14T03:51:01.978Z,9.87
2022-08-14T03:54:08.275Z,9.40
2022-08-14T03:57:13.940Z,11.00
2022-08-14T04:00:43.702Z,10.47
2022-08-14T04:03:42.121Z,11.33
2022-08-14T04:06:48.644Z,12.17
2022-08-14T04:09:52.845Z,11.53
2022-08-14T04:13:00.021Z,10.43
2022-08-14T04:16:12.625Z,10.57
2022-08-14T04:19:23.651Z,11.07
2022-08-14T04:22:26.703Z,10.97
2022-08-14T04:25:31.723Z,10.43
2022-08-14T04:29:07.566Z,10.77
2022-08-14T04:33:02.651Z,10.10
2022-08-14T04:35:24.459Z,10.23
2022-08-14T04:39:05.246Z,9.97
2022-08-14T04:42:28.345Z,10.17
2022-08-14T04:45:40.649Z,9.90
2022-08-14T04:48:51.199Z,10.27
2022-08-14T04:51:56.323Z,9.47
2022-08-14T04:54:59.595Z,11.30
2022-08-14T04:58:06.122Z,11.17
2022-08-14T05:01:19.473Z,10.67
2022-08-14T05:04:24.821Z,11.20
2022-08-14T05:07:53.999Z,10.57
2022-08-14T05:10:53.737Z,10.57
2022-08-14T05:14:17.168Z,10.23
2022-08-14T05:17:21.642Z,9.87
2022-08-14T05:21:57.918Z,10.60
2022-08-14T05:23:49.539Z,11.03
2022-08-14T05:26:53.261Z,10.07
2022-08-14T05:29:57.368Z,11.03
2022-08-14T05:33:01.298Z,11.40
2022-08-14T05:36:07.022Z,10.93
2022-08-14T05:39:21.257Z,10.70
2022-08-14T05:42:29.511Z,10.40
2022-08-14T05:45:35.465Z,9.97
2022-08-14T05:48:42.948Z,9.80
2022-08-14T05:51:46.939Z,10.47
2022-08-14T05:54:51.597Z,11.20
2022-08-14T05:57:59.551Z,11.53
2022-08-14T06:01:03.002Z,11.67
2022-08-14T06:04:08.945Z,12.10
2022-08-14T06:07:15.465Z,12.30
2022-08-14T06:10:19.953Z,10.93
2022-08-14T06:13:23.538Z,11.33
2022-08-14T06:16:34.659Z,11.37
2022-08-14T06:19:39.962Z,11.77
2022-08-14T06:22:45.031Z,11.47
2022-08-14T06:25:52.768Z,11.40
2022-08-14T06:28:56.438Z,12.17
2022-08-14T06:32:37.328Z,11.50
2022-08-14T06:35:23.683Z,11.53
2022-08-14T06:38:26.567Z,11.53
2022-08-14T06:41:57.083Z,11.77
2022-08-14T06:44:53.577Z,11.80
2022-08-14T06:47:58.577Z,12.07
2022-08-14T06:51:01.992Z,11.27
2022-08-14T06:54:05.020Z,11.17
2022-08-14T06:57:13.973Z,11.53
2022-08-14T07:00:22.459Z,12.40
2022-08-14T07:03:47.833Z,10.70
2022-08-14T07:06:51.478Z,12.17
2022-08-14T07:09:58.312Z,12.13
2022-08-14T07:13:04.381Z,11.23
2022-08-14T07:16:08.205Z,11.03
2022-08-14T07:19:11.072Z,11.53
2022-08-14T07:22:17.412Z,12.73
2022-08-14T07:25:32.597Z,10.73
2022-08-14T07:28:43.658Z,10.40
2022-08-14T07:31:47.018Z,11.90
2022-08-14T07:34:50.007Z,10.93
2022-08-14T07:37:53.700Z,10.07
2022-08-14T07:40:57.044Z,10.93
2022-08-14T07:44:32.400Z,11.40
2022-08-14T07:47:26.379Z,10.63
2022-08-14T07:50:34.462Z,10.03
2022-08-14T07:53:39.171Z,10.70
2022-08-14T07:56:47.178Z,11.23
2022-08-14T07:59:53.390Z,10.80
2022-08-14T08:02:57.183Z,11.03
2022-08-14T08:06:04.009Z,10.40
2022-08-14T08:09:13.719Z,10.80
2022-08-14T08:12:18.593Z,10.40
2022-08-14T08:15:23.979Z,11.07
2022-08-14T08:18:29.139Z,9.57
2022-08-14T08:21:33.259Z,10.43
2022-08-14T08:24:38.693Z,11.17
2022-08-14T08:27:44.957Z,10.10
2022-08-14T08:30:52.121Z,10.10
2022-08-14T08:33:55.660Z,10.07
2022-08-14T08:37:02.722Z,9.40
2022-08-14T08:40:10.447Z,9.70
2022-08-14T08:43:26.000Z,9.77
2022-08-14T08:46:30.328Z,8.60
2022-08-14T08:49:58.855Z,9.47
2022-08-14T08:53:05.417Z,10.17
2022-08-14T08:56:08.500Z,9.53
2022-08-14T08:59:27.216Z,9.80
2022-08-14T09:02:35.977Z,9.07
2022-08-14T09:05:49.996Z,9.07
2022-08-14T09:08:57.154Z,8.70
2022-08-14T09:12:02.143Z,9.23
2022-08-14T09:15:12.096Z,8.57
2022-08-14T09:18:20.074Z,7.82
2022-08-14T09:21:31.292Z,8.40
2022-08-14T09:24:35.399Z,7.03
2022-08-14T09:27:46.796Z,6.50
2022-08-14T09:30:54.117Z,6.07
2022-08-14T09:34:27.339Z,6.60
2022-08-14T09:37:49.882Z,6.30
2022-08-14T09:41:04.730Z,9.68
2022-08-14T09:44:21.039Z,6.50
2022-08-14T09:47:43.180Z,8.75
2022-08-14T09:50:50.462Z,6.32
2022-08-14T09:54:18.578Z,6.85
2022-08-14T09:57:28.974Z,7.15
2022-08-14T10:00:44.565Z,6.57
2022-08-14T10:03:52.695Z,5.15
2022-08-14T10:06:58.541Z,6.28
2022-08-14T10:10:02.665Z,5.82
2022-08-14T10:13:26.925Z,5.80
2022-08-14T10:16:43.632Z,6.07
2022-08-14T10:19:49.933Z,5.47
2022-08-14T10:23:23.115Z,5.65
2022-08-14T10:26:23.064Z,5.10
2022-08-14T10:29:33.798Z,5.60
2022-08-14T10:32:51.873Z,4.40
2022-08-14T10:35:55.148Z,4.93
2022-08-14T10:39:01.668Z,8.32
2022-08-14T10:42:16.673Z,5.15
2022-08-14T10:45:23.126Z,5.65
2022-08-14T10:48:36.783Z,5.40
2022-08-14T10:51:41.827Z,4.85
2022-08-14T10:54:48.394Z,5.80
2022-08-14T10:57:59.660Z,6.03
2022-08-14T11:01:05.708Z,4.90
2022-08-14T11:04:20.460Z,5.13
2022-08-14T11:07:29.880Z,5.88
2022-08-14T11:10:45.346Z,5.07
2022-08-14T11:13:50.669Z,6.45
2022-08-14T11:16:54.397Z,5.43
2022-08-14T11:20:01.999Z,6.18
2022-08-14T11:23:09.065Z,5.82
2022-08-14T11:26:16.664Z,5.70
2022-08-14T11:29:22.109Z,5.68
2022-08-14T11:32:27.848Z,5.18
2022-08-14T11:35:36.960Z,6.20
2022-08-14T11:38:48.198Z,6.13
2022-08-14T11:41:56.062Z,4.70
2022-08-14T11:45:00.968Z,7.93
2022-08-14T11:49:02.643Z,5.45
2022-08-14T11:51:54.225Z,5.70
2022-08-14T11:55:00.429Z,9.10
2022-08-14T11:58:10.992Z,5.45
2022-08-14T12:01:16.105Z,5.20
2022-08-14T12:04:32.757Z,5.57
2022-08-14T12:07:36.785Z,5.45
2022-08-14T12:10:46.616Z,4.80
2022-08-14T12:13:55.873Z,6.20
2022-08-14T12:17:03.280Z,6.10
2022-08-14T12:20:09.348Z,5.57
2022-08-14T12:23:23.238Z,5.65
2022-08-14T12:26:39.415Z,5.70
2022-08-14T12:29:54.184Z,5.60
2022-08-14T12:32:57.317Z,6.60
2022-08-14T12:36:04.179Z,5.03
2022-08-14T12:39:20.057Z,5.55
2022-08-14T12:42:37.916Z,5.32
2022-08-14T12:45:50.201Z,6.60
2022-08-14T12:48:53.654Z,5.47
2022-08-14T12:51:59.039Z,5.50
2022-08-14T12:55:06.633Z,5.47
2022-08-14T12:58:29.241Z,5.68
2022-08-14T13:01:56.831Z,5.70
2022-08-14T13:04:59.077Z,6.47
2022-08-14T13:08:06.404Z,5.88
2022-08-14T13:11:37.605Z,5.18
2022-08-14T13:14:48.791Z,5.50
2022-08-14T13:17:56.385Z,5.25
2022-08-14T13:21:05.572Z,5.85
2022-08-14T13:24:12.515Z,6.07
2022-08-14T13:27:18.886Z,5.68
2022-08-14T13:30:24.526Z,5.28
2022-08-14T13:33:30.062Z,4.82
2022-08-14T13:36:54.481Z,5.10
2022-08-14T13:39:58.929Z,5.35
2022-08-14T13:43:03.635Z,4.47
2022-08-14T13:46:08.326Z,4.93
2022-08-14T13:49:15.767Z,4.72
2022-08-14T13:52:52.908Z,4.72
2022-08-14T13:55:52.220Z,4.18
2022-08-14T13:58:59.692Z,3.85
2022-08-14T14:02:06.541Z,4.78
2022-08-14T14:05:18.639Z,6.05
2022-08-14T14:08:45.840Z,5.85
2022-08-14T14:11:52.850Z,4.20
2022-08-14T14:14:57.064Z,4.95
2022-08-14T14:18:02.342Z,5.43
2022-08-14T14:21:07.031Z,4.43
2022-08-14T14:24:15.511Z,4.43
2022-08-14T14:30:53.049Z,4.32
2022-08-14T14:33:58.650Z,4.53
2022-08-14T14:37:04.952Z,4.30
2022-08-14T14:40:51.461Z,3.83
2022-08-14T14:43:44.924Z,5.53
2022-08-14T14:46:51.115Z,4.80
2022-08-14T14:49:57.597Z,4.57
2022-08-14T14:53:13.187Z,4.93
2022-08-14T14:56:47.177Z,3.40
2022-08-14T14:59:39.257Z,4.65
2022-08-14T15:02:44.262Z,5.45
2022-08-14T15:05:47.952Z,3.90
2022-08-14T15:08:56.321Z,4.10
2022-08-14T15:12:00.022Z,6.20
2022-08-14T15:15:08.599Z,4.63
2022-08-14T15:18:36.193Z,4.38
2022-08-14T15:21:36.795Z,3.80
2022-08-14T15:24:43.293Z,3.90
2022-08-14T15:27:51.098Z,3.85
2022-08-14T15:30:58.940Z,4.13
2022-08-14T15:34:43.445Z,3.50
2022-08-14T15:37:42.283Z,4.18
2022-08-14T15:40:51.738Z,4.20
2022-08-14T15:44:00.022Z,3.47
2022-08-14T15:47:06.986Z,4.05
2022-08-14T15:50:10.788Z,3.70
2022-08-14T15:53:14.482Z,4.13
2022-08-14T15:56:20.878Z,4.50
2022-08-14T15:59:59.805Z,4.30
2022-08-14T16:03:02.891Z,3.65
2022-08-14T16:06:10.546Z,3.67
2022-08-14T16:09:14.207Z,3.97
2022-08-14T16:12:19.218Z,4.18
2022-08-14T16:15:24.172Z,3.85
2022-08-14T16:18:27.788Z,6.88
2022-08-14T16:21:35.492Z,6.43
2022-08-14T16:25:00.103Z,4.65
2022-08-14T16:28:08.203Z,4.32
2022-08-14T16:31:11.627Z,4.32
2022-08-14T16:34:46.802Z,4.60
2022-08-14T16:37:41.274Z,5.22
2022-08-14T16:40:47.150Z,5.20
2022-08-14T16:43:53.263Z,4.90
2022-08-14T16:46:57.571Z,4.88
2022-08-14T16:50:05.275Z,5.18
2022-08-14T16:53:12.342Z,5.45
2022-08-14T16:56:25.521Z,5.88
2022-08-14T16:59:52.515Z,9.18
2022-08-14T17:03:01.879Z,5.40
2022-08-14T17:06:10.845Z,6.28
2022-08-14T17:09:43.563Z,5.72
2022-08-14T17:12:46.744Z,7.15
2022-08-14T17:16:05.363Z,6.53
2022-08-14T17:19:13.918Z,6.60
2022-08-14T17:22:18.341Z,6.10
2022-08-14T17:25:23.864Z,8.00
2022-08-14T17:28:51.065Z,7.57
2022-08-14T17:32:02.198Z,6.95
2022-08-14T17:35:10.269Z,6.65
2022-08-14T17:38:33.579Z,7.40
2022-08-14T17:41:43.358Z,7.25
2022-08-14T17:44:48.101Z,7.22
2022-08-14T17:47:53.153Z,7.13
2022-08-14T17:50:59.977Z,7.63
2022-08-14T17:54:08.546Z,7.95
2022-08-14T17:57:13.588Z,6.80
2022-08-14T18:00:17.725Z,7.93
2022-08-14T18:03:46.749Z,7.47
2022-08-14T18:07:08.652Z,8.07
2022-08-14T18:10:52.465Z,7.53
2022-08-14T18:13:51.075Z,7.82
2022-08-14T18:16:57.202Z,7.65
2022-08-14T18:20:02.294Z,7.53
2022-08-14T18:23:25.179Z,7.17
2022-08-14T18:26:37.553Z,7.67
2022-08-14T18:29:44.813Z,8.45
2022-08-14T18:33:01.111Z,7.33
2022-08-14T18:36:49.035Z,7.37
2022-08-14T18:39:32.710Z,7.90
2022-08-14T18:42:45.631Z,8.03
2022-08-14T18:46:00.767Z,7.50
2022-08-14T18:49:17.097Z,7.63
2022-08-14T18:52:22.312Z,8.10
2022-08-14T18:55:52.688Z,8.17
2022-08-14T18:58:58.794Z,8.43
2022-08-14T19:02:44.400Z,8.20
2022-08-14T19:05:58.988Z,7.93
2022-08-14T19:09:04.224Z,8.33
2022-08-14T19:12:07.665Z,8.63
2022-08-14T19:15:21.267Z,8.10
2022-08-14T19:18:38.360Z,7.90
2022-08-14T19:21:43.563Z,9.20
2022-08-14T19:24:50.200Z,7.67
2022-08-14T19:28:31.185Z,8.23
2022-08-14T19:31:42.018Z,7.90
2022-08-14T19:34:52.801Z,8.50
2022-08-14T19:37:57.369Z,8.53
2022-08-14T19:41:13.389Z,8.60
2022-08-14T19:44:19.404Z,8.23
2022-08-14T19:47:38.795Z,8.83
2022-08-14T19:50:46.150Z,8.83
2022-08-14T19:53:51.444Z,8.80
2022-08-14T19:57:00.919Z,9.53
2022-08-14T20:00:28.013Z,9.50
2022-08-14T20:03:59.659Z,9.70
2022-08-14T20:07:06.443Z,10.47
2022-08-14T20:11:03.427Z,9.73
2022-08-14T20:14:00.051Z,9.73
2022-08-14T20:17:06.956Z,9.47
2022-08-14T20:20:20.973Z,10.57
2022-08-14T20:23:38.569Z,9.67
2022-08-14T20:26:43.328Z,9.77
2022-08-14T20:33:47.765Z,9.70
2022-08-14T20:36:51.188Z,9.83
2022-08-14T20:39:55.658Z,10.80
2022-08-14T20:43:16.111Z,9.60
2022-08-14T20:46:30.023Z,9.63
2022-08-14T20:49:36.358Z,9.33
2022-08-14T20:52:42.203Z,10.57
2022-08-14T20:55:46.861Z,9.77
2022-08-14T20:58:56.433Z,9.33
2022-08-14T21:02:29.305Z,10.13
2022-08-14T21:05:34.575Z,9.83
2022-08-14T21:08:38.072Z,10.03
2022-08-14T21:11:43.280Z,11.90
2022-08-14T21:14:51.783Z,10.23
2022-08-14T21:17:56.359Z,10.73
2022-08-14T21:21:04.678Z,11.07
2022-08-14T21:24:47.079Z,11.40
2022-08-14T21:27:37.095Z,11.87
2022-08-14T21:30:46.690Z,10.27
2022-08-14T21:33:57.033Z,10.67
2022-08-14T21:37:07.898Z,10.03
2022-08-14T21:40:39.834Z,10.80
2022-08-14T21:43:36.314Z,11.37
2022-08-14T21:46:46.636Z,11.37
2022-08-14T21:49:51.016Z,10.73
2022-08-14T21:53:01.041Z,10.83
2022-08-14T21:56:05.640Z,11.00
2022-08-14T21:59:18.388Z,10.03
2022-08-14T22:02:32.865Z,10.80
2022-08-14T22:05:38.245Z,11.70
2022-08-14T22:08:45.872Z,11.53
2022-08-14T22:11:49.918Z,11.20
2022-08-14T22:15:00.232Z,11.77
2022-08-14T22:18:05.368Z,12.53
2022-08-14T22:21:16.685Z,11.63
2022-08-14T22:24:37.546Z,10.07
2022-08-14T22:27:55.787Z,11.33
2022-08-14T22:30:59.745Z,11.50
2022-08-14T22:34:03.440Z,12.93
2022-08-14T22:37:08.422Z,11.57
2022-08-14T22:40:48.458Z,12.33
2022-08-14T22:43:37.178Z,13.20
2022-08-14T22:46:43.174Z,12.77
2022-08-14T22:50:32.235Z,11.70
2022-08-14T22:53:12.826Z,12.37
2022-08-14T22:56:20.174Z,12.60
2022-08-14T22:59:36.694Z,11.80
2022-08-14T23:02:42.948Z,14.23
2022-08-14T23:05:52.840Z,12.30
2022-08-14T23:09:36.116Z,13.23
2022-08-14T23:12:27.885Z,12.90
2022-08-14T23:15:33.804Z,12.93
2022-08-14T23:18:37.239Z,12.87
2022-08-14T23:21:46.285Z,13.23
2022-08-14T23:24:52.835Z,12.80
2022-08-14T23:28:04.015Z,14.83
2022-08-14T23:31:10.139Z,13.73
2022-08-14T23:34:20.279Z,14.03
2022-08-14T23:37:26.991Z,13.77
2022-08-14T23:40:32.164Z,13.17
2022-08-14T23:43:35.595Z,13.37
2022-08-14T23:46:39.613Z,12.80
2022-08-14T23:49:59.915Z,14.20
2022-08-14T23:53:14.827Z,12.27
2022-08-14T23:56:33.858Z,12.37
2022-08-14T23:59:37.136Z,13.10
